FAOR Airport Information

Runway Information
Airport Frequencies
Airport Navaids
Airport Weather Information & NOTAM
ADDS - METARS form results

(1407 UTC 20 August 2019)
Data provider http://aviationweather.gov/metar/data/
 
METAR text: FAOR 201400Z 16004KT 110V200 CAVOK 21/M08 Q1030 NOSIG
Conditions at: FAOR (JOHANNESBURG/TAM, ZA) observed 1400 UTC 20 August 2019
Temperature: 21.0°C (70°F)
Dewpoint: -8.0°C (18°F) [RH = 13%]
Pressure (altimeter): 30.41 inches Hg (1030.0 mb)
Winds: from the SSE (160 degrees) at 5 MPH (4 knots; 2.1 m/s)
Visibility: 6 or more miles (10+ km)
Ceiling: ceiling and visibility are OK
Clouds: unknown
Weather: no significant weather observed at this time

METAR text: FAOR 201330Z 20003KT 140V250 9999 FEW007 22/M10 Q1030 NOSIG
Conditions at: FAOR (JOHANNESBURG/TAM, ZA) observed 1330 UTC 20 August 2019
Temperature: 22.0°C (72°F)
Dewpoint: -10.0°C (14°F) [RH = 11%]
Pressure (altimeter): 30.41 inches Hg (1030.0 mb)
Winds: from the SSW (200 degrees) at 3 MPH (3 knots; 1.5 m/s)
Visibility: 6 or more miles (10+ km)
Ceiling: at least 12,000 feet AGL
Clouds: few clouds at 700 feet AGL
Weather: no significant weather observed at this time

Forecast for: FAOR (JOHANNESBURG/TAM, ZA)
Text: TAF FAOR 201000Z 2012/2118 21007KT CAVOK TX22/2013Z TN08/2104Z
Forecast period: 1200 to 1700 UTC 20 August 2019
Forecast type: FROM: standard forecast or significant change
Winds: from the SSW (210 degrees) at 8 MPH (7 knots; 3.6 m/s)
Visibility: 6 or more miles 10+ km)
Ceiling: unknown
Clouds: missing
Weather: no significant weather forecast for this period
Text: BECMG 2017/2019 07011KT
Forecast period: 1700 to 2200 UTC 20 August 2019
Forecast type: BECOMING: Conditions expected to become as follows by 1900 UTC 20 August 2019
Winds: from the ENE (70 degrees) at 13 MPH (11 knots; 5.7 m/s)
Visibility: 6 or more miles 10+ km)
Ceiling: unknown
Clouds: missing
Weather: no significant weather forecast for this period
Text: BECMG 2022/2100 01007KT SCT010
Forecast period: 2200 UTC 20 August 2019 to 0800 UTC 21 August 2019
Forecast type: BECOMING: Conditions expected to become as follows by 0000 UTC 21 August 2019
Winds: from the N (10 degrees) at 8 MPH (7 knots; 3.6 m/s)
Visibility: 6 or more miles 10+ km)
Ceiling: at least 12,000 feet AGL
Clouds: scattered clouds at 1000 feet AGL
Weather: no significant weather forecast for this period
Text: PROB40
Forecast period: 0100 to 0500 UTC 21 August 2019
Forecast type: TEMPORARY: The following changes expected for less than half the time period
Visibility: 1.24 miles (2.00 km)
Ceiling: 400 feet AGL
Clouds: broken clouds at 400 feet AGL
Weather: BR  (mist)
Text: TEMPO 2101/2105 2000 BR BKN004
Forecast period: 0800 to 1800 UTC 21 August 2019
Forecast type: BECOMING: Conditions expected to become as follows by 1000 UTC 21 August 2019
Winds: from the WNW (300 degrees) at 8 MPH (7 knots; 3.6 m/s)
Visibility: 6 or more miles 10+ km)
Ceiling: unknown
Clouds: missing
Weather: NSW  (no significant weather)